Fayetteville, Indiana
Current Conditions -  °F | °C
As of 3:53 PM on Monday 22 Dec 2014 (Local Time) from KBMG Reporting Station
Overcast Overcast  
Wind Chill: 41°   Ceiling: 3200
Heat Index: 45°   Visibility: 10mi
Dew Point: 39°   Wind: 8mph
Humidity: 80%   Direction: 120°ESE
Pressure: 29.75"   Gusts: NA
Location:  38.8737°N, 86.4563°W
Report Text: KBMG 222053Z AUTO 12007KT 10SM SCT020 BKN032 OVC085 07/04 A2975 RMK AO2 SLP078 T00720039 56027
Loading
Personal Weather Stations






























Interactive Weather Map New forecast layout! Learn more

10-Day Weather Forecast

Advertisements
Track Severe Weather on mobile